FIN22WA LPPR-EGLL
Flight info
| Callsign | FIN22WA |
|---|---|
| Flight time | 1h 40m |
| Altitude | 40000 |
| Route | TURON P600 ASDEB DCT KORUL DCT FEJAC DCT JSY/N0472F340 DCT REVTU UP87 ROXOG |
| Aircraft | A359/H-SDE2E3GHIJ3J4J5LM1ORWXY/LB1D1 |
Departure
| Time | 2026-05-04 10:29 |
|---|---|
| Airport | Francisco de Sá Carneiro Airport (LPPR) |
Arrival
| Time | 2026-05-04 12:10 |
|---|---|
| Airport | London Heathrow Airport (EGLL) |
| Time | Latitude | Longitude | Altitude | Speed | Heading |
|---|---|---|---|---|---|
| 2026-05-04 10:08 | 41.24105 | -8.67337 | 237 ft | 0 kts | 78° |
| 2026-05-04 10:19 | 41.24103 | -8.67346 | 242 ft | 2 kts | 79° |
| 2026-05-04 10:19 | 41.24100 | -8.67367 | 241 ft | 2 kts | 78° |
| 2026-05-04 10:19 | 41.24097 | -8.67389 | 239 ft | 2 kts | 78° |
| 2026-05-04 10:19 | 41.24093 | -8.67410 | 238 ft | 2 kts | 76° |
| 2026-05-04 10:20 | 41.24090 | -8.67430 | 237 ft | 2 kts | 116° |
| 2026-05-04 10:20 | 41.24099 | -8.67441 | 236 ft | 1 kts | 161° |
| 2026-05-04 10:20 | 41.24100 | -8.67442 | 236 ft | 0 kts | 162° |
| 2026-05-04 10:25 | 41.23780 | -8.67464 | 236 ft | 12 kts | 170° |
| 2026-05-04 10:25 | 41.23686 | -8.67441 | 237 ft | 15 kts | 169° |
| 2026-05-04 10:25 | 41.23585 | -8.67413 | 239 ft | 15 kts | 168° |
| 2026-05-04 10:25 | 41.23473 | -8.67384 | 240 ft | 18 kts | 169° |
| 2026-05-04 10:26 | 41.23359 | -8.67374 | 240 ft | 11 kts | 207° |
| 2026-05-04 10:26 | 41.23336 | -8.67431 | 240 ft | 7 kts | 253° |
| 2026-05-04 10:26 | 41.23322 | -8.67503 | 242 ft | 8 kts | 257° |
| 2026-05-04 10:26 | 41.23311 | -8.67568 | 244 ft | 0 kts | 258° |
| 2026-05-04 10:27 | 41.23310 | -8.67575 | 244 ft | 6 kts | 258° |
| 2026-05-04 10:27 | 41.23300 | -8.67648 | 246 ft | 7 kts | 269° |
| 2026-05-04 10:28 | 41.23308 | -8.67705 | 247 ft | 6 kts | 289° |
| 2026-05-04 10:28 | 41.23328 | -8.67728 | 247 ft | 3 kts | 332° |
| 2026-05-04 10:28 | 41.23353 | -8.67741 | 246 ft | 15 kts | 340° |
| 2026-05-04 10:28 | 41.23734 | -8.67849 | 229 ft | 95 kts | 349° |
| 2026-05-04 10:29 | 41.24602 | -8.68079 | 217 ft | 158 kts | 348° |
| 2026-05-04 10:29 | 41.25791 | -8.68378 | 631 ft | 184 kts | 347° |
| 2026-05-04 10:29 | 41.27106 | -8.68696 | 1449 ft | 198 kts | 349° |
| 2026-05-04 10:29 | 41.28493 | -8.69012 | 2232 ft | 210 kts | 348° |
| 2026-05-04 10:30 | 41.30021 | -8.69429 | 2780 ft | 238 kts | 347° |
| 2026-05-04 10:30 | 41.31710 | -8.69896 | 3289 ft | 252 kts | 347° |
| 2026-05-04 10:30 | 41.33423 | -8.70362 | 3793 ft | 255 kts | 347° |
| 2026-05-04 10:30 | 41.35174 | -8.70833 | 4312 ft | 256 kts | 347° |
| 2026-05-04 10:31 | 41.36937 | -8.71302 | 4833 ft | 258 kts | 347° |
| 2026-05-04 10:31 | 41.38690 | -8.71766 | 5335 ft | 261 kts | 347° |
| 2026-05-04 10:32 | 41.49735 | -8.70926 | 8360 ft | 277 kts | 9° |
| 2026-05-04 10:33 | 41.51646 | -8.70436 | 8891 ft | 280 kts | 9° |
| 2026-05-04 10:33 | 41.53569 | -8.69944 | 9523 ft | 283 kts | 8° |
| 2026-05-04 10:33 | 41.55520 | -8.69448 | 10170 ft | 286 kts | 8° |
| 2026-05-04 10:33 | 41.57507 | -8.68945 | 10789 ft | 300 kts | 8° |
| 2026-05-04 10:34 | 41.59625 | -8.68410 | 11437 ft | 316 kts | 8° |
| 2026-05-04 10:34 | 41.61813 | -8.67858 | 12074 ft | 330 kts | 8° |
| 2026-05-04 10:34 | 41.64125 | -8.67273 | 12739 ft | 343 kts | 9° |
| 2026-05-04 10:34 | 41.66515 | -8.66664 | 13406 ft | 355 kts | 9° |
| 2026-05-04 10:35 | 41.68978 | -8.66036 | 14063 ft | 362 kts | 9° |
| 2026-05-04 10:35 | 41.71454 | -8.65404 | 14667 ft | 366 kts | 8° |
| 2026-05-04 10:35 | 41.73978 | -8.64758 | 15288 ft | 370 kts | 8° |
| 2026-05-04 10:35 | 41.76510 | -8.64111 | 15916 ft | 374 kts | 8° |
| 2026-05-04 10:36 | 41.79082 | -8.63455 | 16544 ft | 378 kts | 8° |
| 2026-05-04 10:36 | 41.81695 | -8.62788 | 17224 ft | 382 kts | 8° |
| 2026-05-04 10:36 | 41.84286 | -8.62125 | 17876 ft | 386 kts | 7° |
| 2026-05-04 10:36 | 41.86954 | -8.61442 | 18540 ft | 391 kts | 7° |
| 2026-05-04 10:37 | 41.89639 | -8.60755 | 19142 ft | 395 kts | 7° |
| 2026-05-04 10:37 | 41.92334 | -8.60064 | 19746 ft | 399 kts | 7° |
| 2026-05-04 10:37 | 41.95084 | -8.59359 | 20380 ft | 403 kts | 7° |
| 2026-05-04 10:37 | 41.97864 | -8.58646 | 21020 ft | 407 kts | 7° |
| 2026-05-04 10:39 | 42.15106 | -8.54831 | 24904 ft | 430 kts | 1° |
| 2026-05-04 10:39 | 42.18099 | -8.54428 | 25519 ft | 432 kts | 1° |
| 2026-05-04 10:39 | 42.21070 | -8.54018 | 26141 ft | 435 kts | 1° |
| 2026-05-04 10:40 | 42.24088 | -8.53581 | 26780 ft | 437 kts | 1° |
| 2026-05-04 10:40 | 42.27135 | -8.53116 | 27444 ft | 438 kts | 1° |
| 2026-05-04 10:40 | 42.30138 | -8.52645 | 28112 ft | 439 kts | 1° |
| 2026-05-04 10:40 | 42.33191 | -8.52157 | 28794 ft | 440 kts | 2° |
| 2026-05-04 10:41 | 42.36243 | -8.51666 | 29508 ft | 440 kts | 2° |
| 2026-05-04 10:41 | 42.39243 | -8.51181 | 30208 ft | 439 kts | 1° |
| 2026-05-04 10:41 | 42.42281 | -8.50690 | 30822 ft | 438 kts | 1° |
| 2026-05-04 10:41 | 42.45307 | -8.50202 | 31434 ft | 435 kts | 1° |
| 2026-05-04 10:42 | 42.48310 | -8.49705 | 32064 ft | 433 kts | 2° |
| 2026-05-04 10:42 | 42.51234 | -8.48881 | 32715 ft | 434 kts | 11° |
| 2026-05-04 10:42 | 42.54088 | -8.47511 | 33385 ft | 432 kts | 18° |
| 2026-05-04 10:42 | 42.56845 | -8.45894 | 34049 ft | 428 kts | 20° |
| 2026-05-04 10:43 | 42.59499 | -8.44202 | 34616 ft | 422 kts | 21° |
| 2026-05-04 10:44 | 42.76889 | -8.32684 | 37659 ft | 386 kts | 22° |
| 2026-05-04 10:45 | 42.79285 | -8.31118 | 37856 ft | 386 kts | 22° |
| 2026-05-04 10:45 | 42.81721 | -8.29524 | 38027 ft | 387 kts | 22° |
| 2026-05-04 10:45 | 42.84135 | -8.27942 | 38182 ft | 388 kts | 22° |
| 2026-05-04 10:45 | 42.86574 | -8.26341 | 38327 ft | 389 kts | 22° |
| 2026-05-04 10:46 | 42.89019 | -8.24734 | 38467 ft | 390 kts | 22° |
| 2026-05-04 10:46 | 42.91476 | -8.23116 | 38609 ft | 391 kts | 22° |
| 2026-05-04 10:46 | 42.93908 | -8.21514 | 38742 ft | 392 kts | 22° |
| 2026-05-04 10:46 | 42.96375 | -8.19887 | 38848 ft | 393 kts | 22° |
| 2026-05-04 10:47 | 42.98833 | -8.18263 | 38954 ft | 394 kts | 22° |
| 2026-05-04 10:47 | 43.01320 | -8.16620 | 39070 ft | 395 kts | 22° |
| 2026-05-04 10:47 | 43.03804 | -8.14977 | 39168 ft | 396 kts | 22° |
| 2026-05-04 10:47 | 43.06265 | -8.13347 | 39283 ft | 397 kts | 22° |
| 2026-05-04 10:49 | 43.23784 | -8.01709 | 39993 ft | 404 kts | 23° |
| 2026-05-04 10:50 | 43.28908 | -7.98293 | 40047 ft | 411 kts | 23° |
| 2026-05-04 10:51 | 43.47587 | -7.85780 | 40054 ft | 444 kts | 24° |
| 2026-05-04 10:52 | 43.50365 | -7.83911 | 40048 ft | 450 kts | 24° |
| 2026-05-04 10:52 | 43.56046 | -7.80083 | 40048 ft | 461 kts | 24° |
| 2026-05-04 10:54 | 43.77122 | -7.65813 | 40045 ft | 502 kts | 24° |
| 2026-05-04 10:54 | 43.77316 | -7.65681 | 40044 ft | 503 kts | 24° |
| 2026-05-04 10:56 | 43.89427 | -7.57426 | 40046 ft | 516 kts | 24° |
| 2026-05-04 10:56 | 43.92646 | -7.55225 | 40046 ft | 516 kts | 24° |
| 2026-05-04 10:57 | 43.99049 | -7.50839 | 40048 ft | 515 kts | 25° |
| 2026-05-04 10:57 | 44.05497 | -7.46413 | 40054 ft | 515 kts | 25° |
| 2026-05-04 10:58 | 44.08278 | -7.44501 | 40053 ft | 515 kts | 25° |
| 2026-05-04 10:59 | 44.13153 | -7.41142 | 40062 ft | 495 kts | 25° |
| 2026-05-04 10:59 | 44.16177 | -7.39051 | 40053 ft | 473 kts | 25° |
| 2026-05-04 10:59 | 44.19099 | -7.37031 | 40030 ft | 466 kts | 25° |
| 2026-05-04 11:00 | 44.24964 | -7.32982 | 40043 ft | 478 kts | 25° |
| 2026-05-04 11:01 | 44.44938 | -7.19112 | 40039 ft | 514 kts | 25° |
| 2026-05-04 11:05 | 44.86801 | -6.88675 | 40030 ft | 518 kts | 33° |
| 2026-05-04 11:06 | 44.92673 | -6.82835 | 40013 ft | 518 kts | 34° |
| 2026-05-04 11:06 | 44.98524 | -6.76889 | 40012 ft | 518 kts | 35° |
| 2026-05-04 11:10 | 45.39391 | -6.35103 | 40012 ft | 517 kts | 35° |
| 2026-05-04 11:12 | 45.62651 | -6.10997 | 40011 ft | 517 kts | 35° |
| 2026-05-04 11:12 | 45.68446 | -6.04951 | 40012 ft | 517 kts | 35° |
| 2026-05-04 11:13 | 45.74246 | -5.98885 | 40007 ft | 517 kts | 36° |
| 2026-05-04 11:13 | 45.80080 | -5.92767 | 40007 ft | 517 kts | 36° |
| 2026-05-04 11:14 | 45.85850 | -5.86700 | 40006 ft | 516 kts | 36° |
| 2026-05-04 11:16 | 46.08970 | -5.62228 | 40006 ft | 516 kts | 36° |
| 2026-05-04 11:16 | 46.13775 | -5.57110 | 40002 ft | 516 kts | 36° |
| 2026-05-04 11:17 | 46.19539 | -5.50955 | 40001 ft | 516 kts | 36° |
| 2026-05-04 11:19 | 46.42584 | -5.26180 | 40004 ft | 516 kts | 36° |
| 2026-05-04 11:19 | 46.48320 | -5.19972 | 39999 ft | 515 kts | 36° |
| 2026-05-04 11:20 | 46.54047 | -5.13756 | 40006 ft | 515 kts | 36° |
| 2026-05-04 11:20 | 46.59765 | -5.07534 | 40002 ft | 515 kts | 36° |
| 2026-05-04 11:22 | 46.82662 | -4.82449 | 40003 ft | 514 kts | 37° |
| 2026-05-04 11:23 | 46.88353 | -4.76172 | 40034 ft | 514 kts | 37° |
| 2026-05-04 11:25 | 47.08093 | -4.54264 | 39995 ft | 507 kts | 38° |
| 2026-05-04 11:25 | 47.13726 | -4.47975 | 39995 ft | 507 kts | 38° |
| 2026-05-04 11:27 | 47.38935 | -4.19614 | 39994 ft | 507 kts | 38° |
| 2026-05-04 11:28 | 47.44523 | -4.13280 | 39994 ft | 507 kts | 38° |
| 2026-05-04 11:28 | 47.50137 | -4.06899 | 39990 ft | 507 kts | 38° |
| 2026-05-04 11:29 | 47.55706 | -4.00552 | 39994 ft | 507 kts | 38° |
| 2026-05-04 11:29 | 47.61292 | -3.94166 | 39990 ft | 507 kts | 38° |
| 2026-05-04 11:33 | 48.00296 | -3.49087 | 39979 ft | 507 kts | 38° |
| 2026-05-04 11:33 | 48.05836 | -3.42612 | 39980 ft | 507 kts | 38° |
| 2026-05-04 11:34 | 48.11420 | -3.36067 | 39987 ft | 507 kts | 38° |
| 2026-05-04 11:34 | 48.16960 | -3.29555 | 39984 ft | 507 kts | 39° |
| 2026-05-04 11:35 | 48.22485 | -3.23044 | 39986 ft | 506 kts | 39° |
| 2026-05-04 11:35 | 48.28011 | -3.16511 | 39984 ft | 506 kts | 39° |
| 2026-05-04 11:36 | 48.33552 | -3.09943 | 39999 ft | 505 kts | 39° |
| 2026-05-04 11:36 | 48.39057 | -3.03399 | 40013 ft | 505 kts | 39° |
| 2026-05-04 11:37 | 48.44549 | -2.96852 | 40010 ft | 505 kts | 39° |
| 2026-05-04 11:37 | 48.50043 | -2.90284 | 40024 ft | 505 kts | 39° |
| 2026-05-04 11:38 | 48.55570 | -2.83656 | 39993 ft | 505 kts | 39° |
| 2026-05-04 11:38 | 48.61067 | -2.77047 | 39994 ft | 505 kts | 39° |
| 2026-05-04 11:39 | 48.66563 | -2.70420 | 39994 ft | 505 kts | 39° |
| 2026-05-04 11:41 | 48.85832 | -2.47360 | 40010 ft | 505 kts | 38° |
| 2026-05-04 11:41 | 48.91428 | -2.40873 | 40011 ft | 505 kts | 38° |
| 2026-05-04 11:42 | 48.97008 | -2.34349 | 40011 ft | 504 kts | 38° |
| 2026-05-04 11:42 | 49.02551 | -2.27826 | 40018 ft | 504 kts | 38° |
| 2026-05-04 11:43 | 49.08079 | -2.21295 | 40021 ft | 504 kts | 38° |
| 2026-05-04 11:43 | 49.13613 | -2.14739 | 40021 ft | 504 kts | 38° |
| 2026-05-04 11:44 | 49.19147 | -2.08165 | 40019 ft | 504 kts | 38° |
| 2026-05-04 11:44 | 49.25020 | -2.02209 | 40018 ft | 505 kts | 30° |
| 2026-05-04 11:45 | 49.31102 | -1.96954 | 40016 ft | 505 kts | 29° |
| 2026-05-04 11:45 | 49.37289 | -1.91727 | 40016 ft | 505 kts | 29° |
| 2026-05-04 11:46 | 49.43439 | -1.86515 | 40012 ft | 505 kts | 29° |
| 2026-05-04 11:46 | 49.49566 | -1.81289 | 40014 ft | 505 kts | 30° |
| 2026-05-04 11:47 | 49.55717 | -1.76062 | 40014 ft | 505 kts | 27° |
| 2026-05-04 11:47 | 49.62356 | -1.72604 | 39738 ft | 506 kts | 9° |
| 2026-05-04 11:47 | 49.65859 | -1.71977 | 39293 ft | 505 kts | 4° |
| 2026-05-04 11:48 | 49.69375 | -1.71587 | 38849 ft | 505 kts | 3° |
| 2026-05-04 11:48 | 49.72864 | -1.71300 | 38357 ft | 506 kts | 2° |
| 2026-05-04 11:48 | 49.76388 | -1.71048 | 37810 ft | 506 kts | 2° |
| 2026-05-04 11:48 | 49.79886 | -1.70800 | 37281 ft | 507 kts | 2° |
| 2026-05-04 11:49 | 49.83411 | -1.70537 | 36763 ft | 508 kts | 2° |
| 2026-05-04 11:49 | 49.86965 | -1.70257 | 36253 ft | 509 kts | 3° |
| 2026-05-04 11:49 | 49.90470 | -1.69969 | 35766 ft | 509 kts | 3° |
| 2026-05-04 11:49 | 49.94030 | -1.69669 | 35277 ft | 510 kts | 3° |
| 2026-05-04 11:50 | 49.97597 | -1.69327 | 34802 ft | 511 kts | 5° |
| 2026-05-04 11:50 | 50.01084 | -1.68425 | 34323 ft | 511 kts | 15° |
| 2026-05-04 11:50 | 50.04519 | -1.66922 | 33844 ft | 512 kts | 17° |
| 2026-05-04 11:50 | 50.07901 | -1.65319 | 33289 ft | 513 kts | 18° |
| 2026-05-04 11:51 | 50.11346 | -1.63661 | 32747 ft | 516 kts | 18° |
| 2026-05-04 11:51 | 50.14788 | -1.61997 | 32213 ft | 518 kts | 18° |
| 2026-05-04 11:51 | 50.18201 | -1.60341 | 31702 ft | 520 kts | 18° |
| 2026-05-04 11:51 | 50.21681 | -1.58649 | 31187 ft | 519 kts | 18° |
| 2026-05-04 11:52 | 50.25099 | -1.56984 | 30688 ft | 518 kts | 18° |
| 2026-05-04 11:52 | 50.28557 | -1.55296 | 30186 ft | 516 kts | 18° |
| 2026-05-04 11:52 | 50.31940 | -1.53641 | 29627 ft | 513 kts | 18° |
| 2026-05-04 11:52 | 50.35342 | -1.51976 | 29052 ft | 509 kts | 18° |
| 2026-05-04 11:53 | 50.38731 | -1.50314 | 28516 ft | 505 kts | 18° |
| 2026-05-04 11:53 | 50.42082 | -1.48668 | 27943 ft | 500 kts | 18° |
| 2026-05-04 11:53 | 50.45365 | -1.47054 | 27411 ft | 494 kts | 18° |
| 2026-05-04 11:53 | 50.48609 | -1.45456 | 26870 ft | 489 kts | 18° |
| 2026-05-04 11:55 | 50.69075 | -1.29777 | 25016 ft | 431 kts | 29° |
| 2026-05-04 11:55 | 50.71658 | -1.27545 | 25014 ft | 415 kts | 29° |
| 2026-05-04 11:56 | 50.74172 | -1.25372 | 24847 ft | 425 kts | 29° |
| 2026-05-04 11:56 | 50.76870 | -1.23033 | 24364 ft | 452 kts | 29° |
| 2026-05-04 11:56 | 50.79549 | -1.20440 | 23786 ft | 458 kts | 34° |
| 2026-05-04 11:56 | 50.82191 | -1.17636 | 23129 ft | 455 kts | 34° |
| 2026-05-04 11:57 | 50.84826 | -1.14842 | 22437 ft | 452 kts | 34° |
| 2026-05-04 11:57 | 50.87443 | -1.12094 | 21756 ft | 448 kts | 34° |
| 2026-05-04 11:57 | 50.90005 | -1.09419 | 21110 ft | 444 kts | 34° |
| 2026-05-04 11:57 | 50.92584 | -1.06735 | 20470 ft | 439 kts | 34° |
| 2026-05-04 11:58 | 50.95105 | -1.04112 | 19833 ft | 435 kts | 34° |
| 2026-05-04 11:58 | 50.97632 | -1.01483 | 19217 ft | 430 kts | 34° |
| 2026-05-04 11:58 | 51.00099 | -0.98817 | 18510 ft | 428 kts | 39° |
| 2026-05-04 11:58 | 51.02256 | -0.95530 | 17600 ft | 427 kts | 49° |
| 2026-05-04 11:59 | 51.04222 | -0.92025 | 16673 ft | 428 kts | 50° |
| 2026-05-04 11:59 | 51.06203 | -0.88451 | 15719 ft | 429 kts | 50° |
| 2026-05-04 11:59 | 51.08158 | -0.84935 | 14930 ft | 426 kts | 49° |
| 2026-05-04 11:59 | 51.10121 | -0.81417 | 14169 ft | 422 kts | 49° |
| 2026-05-04 12:00 | 51.12047 | -0.77966 | 13383 ft | 419 kts | 49° |
| 2026-05-04 12:00 | 51.13984 | -0.74497 | 12573 ft | 414 kts | 49° |
| 2026-05-04 12:00 | 51.15879 | -0.71099 | 11824 ft | 409 kts | 49° |
| 2026-05-04 12:00 | 51.17773 | -0.67702 | 11058 ft | 404 kts | 49° |
| 2026-05-04 12:01 | 51.19614 | -0.64400 | 10318 ft | 400 kts | 49° |
| 2026-05-04 12:01 | 51.21461 | -0.61074 | 9525 ft | 396 kts | 49° |
| 2026-05-04 12:02 | 51.31149 | -0.43584 | 6638 ft | 333 kts | 48° |
| 2026-05-04 12:03 | 51.33244 | -0.40161 | 6302 ft | 315 kts | 45° |
| 2026-05-04 12:03 | 51.34270 | -0.38538 | 6113 ft | 308 kts | 45° |
| 2026-05-04 12:03 | 51.35765 | -0.36154 | 5844 ft | 297 kts | 45° |
| 2026-05-04 12:03 | 51.37201 | -0.33847 | 5595 ft | 288 kts | 45° |
| 2026-05-04 12:04 | 51.38602 | -0.31586 | 5249 ft | 283 kts | 45° |
| 2026-05-04 12:04 | 51.39983 | -0.29353 | 4755 ft | 286 kts | 45° |
| 2026-05-04 12:04 | 51.41389 | -0.27071 | 4238 ft | 288 kts | 45° |
| 2026-05-04 12:04 | 51.42780 | -0.24805 | 3729 ft | 287 kts | 45° |
| 2026-05-04 12:05 | 51.44177 | -0.22526 | 3221 ft | 286 kts | 45° |
| 2026-05-04 12:05 | 51.45576 | -0.20239 | 2738 ft | 283 kts | 46° |
| 2026-05-04 12:05 | 51.47163 | -0.18540 | 2546 ft | 266 kts | 17° |
| 2026-05-04 12:05 | 51.48848 | -0.18502 | 2530 ft | 232 kts | 343° |
| 2026-05-04 12:06 | 51.50018 | -0.19940 | 2487 ft | 201 kts | 302° |
| 2026-05-04 12:06 | 51.50209 | -0.21989 | 2489 ft | 183 kts | 256° |
| 2026-05-04 12:06 | 51.49460 | -0.23435 | 2485 ft | 164 kts | 203° |
| 2026-05-04 12:06 | 51.48462 | -0.24096 | 2451 ft | 152 kts | 216° |
| 2026-05-04 12:07 | 51.47927 | -0.25504 | 2390 ft | 151 kts | 250° |
| 2026-05-04 12:07 | 51.47808 | -0.27185 | 2150 ft | 152 kts | 275° |
| 2026-05-04 12:07 | 51.47872 | -0.28880 | 1919 ft | 154 kts | 274° |
| 2026-05-04 12:07 | 51.47881 | -0.30582 | 1707 ft | 151 kts | 270° |
| 2026-05-04 12:08 | 51.47856 | -0.32226 | 1486 ft | 143 kts | 272° |
| 2026-05-04 12:08 | 51.47849 | -0.33777 | 1312 ft | 139 kts | 271° |
| 2026-05-04 12:08 | 51.47839 | -0.35320 | 1115 ft | 139 kts | 271° |
| 2026-05-04 12:08 | 51.47827 | -0.36884 | 920 ft | 138 kts | 271° |
| 2026-05-04 12:09 | 51.47817 | -0.38421 | 731 ft | 138 kts | 271° |
| 2026-05-04 12:09 | 51.47808 | -0.39979 | 541 ft | 139 kts | 271° |
| 2026-05-04 12:09 | 51.47798 | -0.41516 | 357 ft | 138 kts | 270° |
| 2026-05-04 12:09 | 51.47770 | -0.43062 | 173 ft | 139 kts | 269° |
| 2026-05-04 12:10 | 51.47762 | -0.44565 | 97 ft | 124 kts | 272° |
| 2026-05-04 12:10 | 51.47758 | -0.45524 | 94 ft | 43 kts | 269° |
| 2026-05-04 12:10 | 51.47757 | -0.45649 | 93 ft | 1 kts | 269° |
| 2026-05-04 12:10 | 51.47756 | -0.45698 | 92 ft | 9 kts | 268° |
| 2026-05-04 12:11 | 51.47738 | -0.45805 | 92 ft | 11 kts | 243° |
| 2026-05-04 12:11 | 51.47690 | -0.45909 | 94 ft | 12 kts | 226° |
| 2026-05-04 12:11 | 51.47618 | -0.46011 | 94 ft | 12 kts | 220° |
| 2026-05-04 12:11 | 51.47615 | -0.46016 | 94 ft | 0 kts | 220° |
| 2026-05-04 12:12 | 51.47614 | -0.46016 | 94 ft | 0 kts | 220° |
| 2026-05-04 12:12 | 51.47610 | -0.46022 | 96 ft | 7 kts | 220° |
| 2026-05-04 12:12 | 51.47565 | -0.46068 | 98 ft | 5 kts | 198° |
| 2026-05-04 12:13 | 51.47556 | -0.46061 | 97 ft | 1 kts | 155° |
| 2026-05-04 12:14 | 51.47507 | -0.45392 | 96 ft | 19 kts | 90° |
| 2026-05-04 12:15 | 51.47508 | -0.45169 | 97 ft | 20 kts | 90° |
| 2026-05-04 12:15 | 51.47509 | -0.44932 | 97 ft | 23 kts | 89° |
| 2026-05-04 12:15 | 51.47510 | -0.44665 | 98 ft | 25 kts | 90° |
| 2026-05-04 12:15 | 51.47507 | -0.44453 | 97 ft | 20 kts | 90° |
| 2026-05-04 12:16 | 51.47507 | -0.44211 | 96 ft | 23 kts | 89° |
| 2026-05-04 12:16 | 51.47458 | -0.44069 | 97 ft | 12 kts | 147° |
| 2026-05-04 12:16 | 51.47398 | -0.44059 | 96 ft | 10 kts | 178° |
| 2026-05-04 12:16 | 51.47351 | -0.44081 | 95 ft | 3 kts | 231° |
| 2026-05-04 12:17 | 51.47342 | -0.44125 | 96 ft | 6 kts | 255° |
| 2026-05-04 12:17 | 51.47340 | -0.44196 | 97 ft | 0 kts | 269° |
| 2026-05-04 12:17 | 51.47340 | -0.44201 | 97 ft | 0 kts | 269° |